createdAt,value
2023-05-20T00:00:31.075Z,11.73
2023-05-20T00:03:35.192Z,11.69
2023-05-20T00:06:38.900Z,11.60
2023-05-20T00:09:43.855Z,11.55
2023-05-20T00:12:48.274Z,11.47
2023-05-20T00:15:51.970Z,11.48
2023-05-20T00:18:56.868Z,11.37
2023-05-20T00:22:00.439Z,11.29
2023-05-20T00:25:06.403Z,11.20
2023-05-20T00:28:09.993Z,11.15
2023-05-20T00:31:13.810Z,11.10
2023-05-20T00:34:17.345Z,11.04
2023-05-20T00:37:20.913Z,11.00
2023-05-20T00:40:26.092Z,10.91
2023-05-20T00:43:29.632Z,10.87
2023-05-20T00:46:33.477Z,10.89
2023-05-20T00:49:37.271Z,10.79
2023-05-20T00:52:41.685Z,10.74
2023-05-20T00:55:46.834Z,10.70
2023-05-20T00:58:51.189Z,10.65
2023-05-20T01:01:56.494Z,10.71
2023-05-20T01:05:00.904Z,10.71
2023-05-20T01:08:05.861Z,10.62
2023-05-20T01:11:20.009Z,10.56
2023-05-20T01:14:28.439Z,10.54
2023-05-20T01:17:38.018Z,10.50
2023-05-20T01:20:41.765Z,10.50
2023-05-20T01:23:46.750Z,10.49
2023-05-20T01:26:50.714Z,10.41
2023-05-20T01:29:54.908Z,10.38
2023-05-20T01:33:07.024Z,10.38
2023-05-20T01:36:13.322Z,10.35
2023-05-20T01:39:20.007Z,10.29
2023-05-20T01:42:26.638Z,10.33
2023-05-20T01:45:30.294Z,10.23
2023-05-20T01:48:34.685Z,10.24
2023-05-20T01:51:38.402Z,10.20
2023-05-20T01:54:43.324Z,10.12
2023-05-20T01:57:47.285Z,10.09
2023-05-20T02:00:51.084Z,10.09
2023-05-20T02:03:54.797Z,10.04
2023-05-20T02:06:59.376Z,10.02
2023-05-20T02:10:04.600Z,9.95
2023-05-20T02:13:08.113Z,9.94
2023-05-20T02:16:11.732Z,9.91
2023-05-20T02:19:20.172Z,9.90
2023-05-20T02:22:23.686Z,9.86
2023-05-20T02:25:28.663Z,9.75
2023-05-20T02:28:32.356Z,9.72
2023-05-20T02:31:36.058Z,9.71
2023-05-20T02:34:40.521Z,9.70
2023-05-20T02:37:44.950Z,9.66
2023-05-20T02:40:49.979Z,9.63
2023-05-20T02:43:54.309Z,9.55
2023-05-20T02:46:57.879Z,9.52
2023-05-20T02:50:01.605Z,9.58
2023-05-20T02:53:05.393Z,9.42
2023-05-20T02:56:11.049Z,9.39
2023-05-20T02:59:14.664Z,9.35
2023-05-20T03:02:18.188Z,9.31
2023-05-20T03:05:22.854Z,9.24
2023-05-20T03:08:26.978Z,9.21
2023-05-20T03:11:32.024Z,9.14
2023-05-20T03:14:35.544Z,9.10
2023-05-20T03:17:39.207Z,9.08
2023-05-20T03:20:43.096Z,9.03
2023-05-20T03:23:46.973Z,8.98
2023-05-20T03:26:51.984Z,8.97
2023-05-20T03:29:55.669Z,9.00
2023-05-20T03:33:00.326Z,8.90
2023-05-20T03:36:04.096Z,8.85
2023-05-20T03:39:07.961Z,8.86
2023-05-20T03:42:12.971Z,8.88
2023-05-20T03:45:16.549Z,8.85
2023-05-20T03:48:20.325Z,8.81
2023-05-20T03:51:23.898Z,8.85
2023-05-20T03:54:28.159Z,8.85
2023-05-20T03:57:33.438Z,8.80
2023-05-20T04:00:37.086Z,8.82
2023-05-20T04:03:42.178Z,8.84
2023-05-20T04:06:46.330Z,8.94
2023-05-20T04:09:51.159Z,8.85
2023-05-20T04:12:56.141Z,8.92
2023-05-20T04:16:00.246Z,9.08
2023-05-20T04:19:03.875Z,9.10
2023-05-20T04:22:08.002Z,9.24
2023-05-20T04:25:12.435Z,9.18
2023-05-20T04:28:18.066Z,9.30
2023-05-20T04:31:27.029Z,9.34
2023-05-20T04:34:35.218Z,9.59
2023-05-20T04:37:39.131Z,9.83
2023-05-20T04:40:42.959Z,9.96
2023-05-20T04:43:48.010Z,10.15
2023-05-20T04:46:51.686Z,10.33
2023-05-20T04:49:57.734Z,10.33
2023-05-20T04:53:01.950Z,10.68
2023-05-20T04:56:06.497Z,11.01
2023-05-20T04:59:11.560Z,11.09
2023-05-20T05:02:15.764Z,11.13
2023-05-20T05:05:19.566Z,11.09
2023-05-20T05:08:23.249Z,11.44
2023-05-20T05:11:27.173Z,11.86
2023-05-20T05:14:32.056Z,11.98
2023-05-20T05:17:35.996Z,11.91
2023-05-20T05:20:39.594Z,12.24
2023-05-20T05:23:43.839Z,12.58
2023-05-20T05:26:47.329Z,12.34
2023-05-20T05:29:52.307Z,12.27
2023-05-20T05:32:56.043Z,11.99
2023-05-20T05:36:01.211Z,12.25
2023-05-20T05:39:04.860Z,12.49
2023-05-20T05:42:08.499Z,12.48
2023-05-20T05:45:13.679Z,12.74
2023-05-20T05:48:17.332Z,12.42
2023-05-20T05:51:21.031Z,12.50
2023-05-20T05:54:24.746Z,12.81
2023-05-20T05:57:28.233Z,12.86
2023-05-20T06:00:33.302Z,12.87
2023-05-20T06:03:36.927Z,12.38
2023-05-20T06:06:40.665Z,12.36
2023-05-20T06:09:44.182Z,12.38
2023-05-20T06:12:47.668Z,12.66
2023-05-20T06:15:53.714Z,12.94
2023-05-20T06:18:57.625Z,12.82
2023-05-20T06:22:01.415Z,12.98
2023-05-20T06:25:06.417Z,12.97
2023-05-20T06:28:10.564Z,12.69
2023-05-20T06:31:15.828Z,12.56
2023-05-20T06:34:19.519Z,13.02
2023-05-20T06:37:24.558Z,13.12
2023-05-20T06:40:28.852Z,13.20
2023-05-20T06:43:34.229Z,13.80
2023-05-20T06:46:39.467Z,14.06
2023-05-20T06:49:44.493Z,14.27
2023-05-20T06:52:50.099Z,14.60
2023-05-20T06:55:56.833Z,14.76
2023-05-20T06:59:00.744Z,15.09
2023-05-20T07:02:06.502Z,15.29
2023-05-20T07:05:11.611Z,15.79
2023-05-20T07:08:15.279Z,16.33
2023-05-20T07:11:19.030Z,16.22
2023-05-20T07:14:22.679Z,16.35
2023-05-20T07:17:29.373Z,16.26
2023-05-20T07:20:33.166Z,16.58
2023-05-20T07:23:37.131Z,17.04
2023-05-20T07:26:41.201Z,16.91
2023-05-20T07:29:44.681Z,17.44
2023-05-20T07:32:49.654Z,17.21
2023-05-20T07:35:54.619Z,17.47
2023-05-20T07:39:04.004Z,17.60
2023-05-20T07:42:09.767Z,17.22
2023-05-20T07:45:13.457Z,16.36
2023-05-20T07:48:18.915Z,17.03
2023-05-20T07:51:22.494Z,17.37
2023-05-20T07:54:26.140Z,17.31
2023-05-20T07:57:30.420Z,18.10
2023-05-20T08:00:33.928Z,17.65
2023-05-20T08:03:39.145Z,17.29
2023-05-20T08:06:44.495Z,17.90
2023-05-20T08:09:48.401Z,18.08
2023-05-20T08:12:52.197Z,18.45
2023-05-20T08:15:55.851Z,18.66
2023-05-20T08:19:00.768Z,18.22
2023-05-20T08:22:04.338Z,18.54
2023-05-20T08:25:11.070Z,18.17
2023-05-20T08:28:15.282Z,19.12
2023-05-20T08:31:19.323Z,18.21
2023-05-20T08:34:24.362Z,17.99
2023-05-20T08:37:28.245Z,18.00
2023-05-20T08:40:31.812Z,18.07
2023-05-20T08:43:36.179Z,17.77
2023-05-20T08:46:41.941Z,17.29
2023-05-20T08:49:47.296Z,17.65
2023-05-20T08:52:51.751Z,17.30
2023-05-20T08:56:01.518Z,16.88
2023-05-20T08:59:06.539Z,16.49
2023-05-20T09:02:11.993Z,17.81
2023-05-20T09:05:18.200Z,17.64
2023-05-20T09:08:26.922Z,17.61
2023-05-20T09:11:31.995Z,18.94
2023-05-20T09:14:35.914Z,17.94
2023-05-20T09:17:40.311Z,17.91
2023-05-20T09:20:49.547Z,18.10
2023-05-20T09:23:54.199Z,18.54
2023-05-20T09:26:58.952Z,17.21
2023-05-20T09:30:02.620Z,17.63
2023-05-20T09:33:07.874Z,17.29
2023-05-20T09:36:16.623Z,17.44
2023-05-20T09:39:30.785Z,17.54
2023-05-20T09:42:44.159Z,17.49
2023-05-20T09:45:48.893Z,17.83
2023-05-20T09:48:52.762Z,17.49
2023-05-20T09:52:00.831Z,17.26
2023-05-20T09:55:07.010Z,16.89
2023-05-20T09:58:16.277Z,16.89
2023-05-20T10:01:20.146Z,17.30
2023-05-20T10:04:26.743Z,17.35
2023-05-20T10:08:12.964Z,17.70
2023-05-20T10:11:29.417Z,18.23
2023-05-20T10:14:56.811Z,18.31
2023-05-20T10:18:19.781Z,18.30
2023-05-20T10:21:26.073Z,18.58
2023-05-20T10:24:38.201Z,17.92
2023-05-20T10:27:46.496Z,18.17
2023-05-20T10:30:52.241Z,17.87
2023-05-20T10:33:56.145Z,17.39
2023-05-20T10:37:00.433Z,17.50
2023-05-20T10:40:14.722Z,17.97
2023-05-20T10:43:27.793Z,18.30
2023-05-20T10:46:40.069Z,18.21
2023-05-20T10:49:53.917Z,17.68
2023-05-20T10:53:05.322Z,17.49
2023-05-20T10:56:19.432Z,17.91
2023-05-20T10:59:23.820Z,18.20
2023-05-20T11:02:29.218Z,17.81
2023-05-20T11:05:34.063Z,18.41
2023-05-20T11:08:37.645Z,17.51
2023-05-20T11:11:43.116Z,17.38
2023-05-20T11:14:47.606Z,17.32
2023-05-20T11:17:56.061Z,16.65
2023-05-20T11:21:00.023Z,16.74
2023-05-20T11:24:03.576Z,16.58
2023-05-20T11:27:09.799Z,16.41
2023-05-20T11:30:17.071Z,16.51
2023-05-20T11:33:20.974Z,16.57
2023-05-20T11:36:28.096Z,16.33
2023-05-20T11:39:32.877Z,16.49
2023-05-20T11:42:38.646Z,16.22
2023-05-20T11:45:43.579Z,16.43
2023-05-20T11:48:55.046Z,16.45
2023-05-20T11:51:58.930Z,16.32
2023-05-20T11:55:02.524Z,16.47
2023-05-20T11:58:07.561Z,16.44
2023-05-20T12:01:21.708Z,16.24
2023-05-20T12:04:26.239Z,16.26
2023-05-20T12:07:29.950Z,16.50
2023-05-20T12:10:34.281Z,16.73
2023-05-20T12:13:41.004Z,16.33
2023-05-20T12:16:44.598Z,16.63
2023-05-20T12:19:48.140Z,16.33
2023-05-20T12:22:52.821Z,16.32
2023-05-20T12:25:56.662Z,16.49
2023-05-20T12:29:01.684Z,16.75
2023-05-20T12:32:06.193Z,16.44
2023-05-20T12:35:11.504Z,16.07
2023-05-20T12:38:15.098Z,16.03
2023-05-20T12:41:18.829Z,16.26
2023-05-20T12:44:23.763Z,16.22
2023-05-20T12:47:27.505Z,16.25
2023-05-20T12:50:30.996Z,16.24
2023-05-20T12:53:34.604Z,16.31
2023-05-20T12:56:38.164Z,16.37
2023-05-20T12:59:43.151Z,16.33
2023-05-20T13:02:46.822Z,16.23
2023-05-20T13:05:50.581Z,16.28
2023-05-20T13:08:54.136Z,16.72
2023-05-20T13:11:57.773Z,16.96
2023-05-20T13:15:02.928Z,16.73
2023-05-20T13:18:07.138Z,17.04
2023-05-20T13:21:10.793Z,16.94
2023-05-20T13:24:14.406Z,16.91
2023-05-20T13:27:17.930Z,16.58
2023-05-20T13:30:22.796Z,16.76
2023-05-20T13:33:26.304Z,16.63
2023-05-20T13:36:29.921Z,17.15
2023-05-20T13:39:33.533Z,17.74
2023-05-20T13:42:37.537Z,17.92
2023-05-20T13:45:42.599Z,17.41
2023-05-20T13:48:46.325Z,17.13
2023-05-20T13:51:49.921Z,16.82
2023-05-20T13:54:53.410Z,17.21
2023-05-20T13:57:57.038Z,17.19
2023-05-20T14:01:02.281Z,17.24
2023-05-20T14:04:06.062Z,17.54
2023-05-20T14:07:10.097Z,17.38
2023-05-20T14:10:14.631Z,17.19
2023-05-20T14:13:18.109Z,17.67
2023-05-20T14:16:23.079Z,17.30
2023-05-20T14:19:27.418Z,17.02
2023-05-20T14:22:31.116Z,17.13
2023-05-20T14:25:34.758Z,17.24
2023-05-20T14:28:38.681Z,17.43
2023-05-20T14:31:43.944Z,17.02
2023-05-20T14:34:47.576Z,17.20
2023-05-20T14:37:51.282Z,16.96
2023-05-20T14:40:54.807Z,16.94
2023-05-20T14:43:58.466Z,17.00
2023-05-20T14:47:04.404Z,16.78
2023-05-20T14:50:08.998Z,16.90
2023-05-20T14:53:12.622Z,16.70
2023-05-20T14:56:16.247Z,16.47
2023-05-20T14:59:20.376Z,16.69
2023-05-20T15:02:25.429Z,16.79
2023-05-20T15:05:29.101Z,16.95
2023-05-20T15:08:33.575Z,16.71
2023-05-20T15:11:37.168Z,16.72
2023-05-20T15:14:40.669Z,16.28
2023-05-20T15:17:45.564Z,16.58
2023-05-20T15:20:49.284Z,17.13
2023-05-20T15:23:52.813Z,16.60
2023-05-20T15:26:56.361Z,16.56
2023-05-20T15:29:59.967Z,16.49
2023-05-20T15:33:05.107Z,16.82
2023-05-20T15:36:09.184Z,17.14
2023-05-20T15:39:13.053Z,17.20
2023-05-20T15:42:18.735Z,16.96
2023-05-20T15:45:22.382Z,16.63
2023-05-20T15:48:28.488Z,16.57
2023-05-20T15:51:31.945Z,16.63
2023-05-20T15:54:35.812Z,16.17
2023-05-20T15:57:39.391Z,16.12
2023-05-20T16:00:43.104Z,16.21
2023-05-20T16:03:48.393Z,16.21
2023-05-20T16:06:52.028Z,16.18
2023-05-20T16:09:55.970Z,16.39
2023-05-20T16:12:59.722Z,16.42
2023-05-20T16:16:03.835Z,16.04
2023-05-20T16:19:08.823Z,16.03
2023-05-20T16:22:13.515Z,15.72
2023-05-20T16:25:17.189Z,16.09
2023-05-20T16:28:20.728Z,15.83
2023-05-20T16:31:24.700Z,15.80
2023-05-20T16:34:29.590Z,15.93
2023-05-20T16:37:33.266Z,16.11
2023-05-20T16:40:36.862Z,16.04
2023-05-20T16:43:40.454Z,15.97
2023-05-20T16:46:44.137Z,15.81
2023-05-20T16:49:49.149Z,15.89
2023-05-20T16:52:52.843Z,15.95
2023-05-20T16:55:56.823Z,16.21
2023-05-20T16:59:00.385Z,15.92
2023-05-20T17:02:04.317Z,16.11
2023-05-20T17:05:11.107Z,16.11
2023-05-20T17:08:15.265Z,15.83
2023-05-20T17:11:18.982Z,15.88
2023-05-20T17:14:22.657Z,15.81
2023-05-20T17:17:26.209Z,15.76
2023-05-20T17:20:31.705Z,15.72
2023-05-20T17:23:35.414Z,15.62
2023-05-20T17:26:39.649Z,15.66
2023-05-20T17:29:43.408Z,15.77
2023-05-20T17:32:48.107Z,15.75
2023-05-20T17:35:53.090Z,15.72
2023-05-20T17:38:57.032Z,15.77
2023-05-20T17:42:00.586Z,15.76
2023-05-20T17:45:04.394Z,15.68
2023-05-20T17:48:10.073Z,15.64
2023-05-20T17:51:16.984Z,15.61
2023-05-20T17:54:20.793Z,15.68
2023-05-20T17:57:24.448Z,15.65
2023-05-20T18:00:28.604Z,15.70
2023-05-20T18:03:32.434Z,15.61
2023-05-20T18:06:38.214Z,15.49
2023-05-20T18:09:41.876Z,15.37
2023-05-20T18:12:45.563Z,15.29
2023-05-20T18:15:49.376Z,15.34
2023-05-20T18:18:53.058Z,15.27
2023-05-20T18:21:58.671Z,15.25
2023-05-20T18:25:02.266Z,15.24
2023-05-20T18:28:08.821Z,15.33
2023-05-20T18:31:12.485Z,15.16
2023-05-20T18:34:16.279Z,15.17
2023-05-20T18:37:21.472Z,15.21
2023-05-20T18:40:25.325Z,15.21
2023-05-20T18:43:28.858Z,15.18
2023-05-20T18:46:33.296Z,15.12
2023-05-20T18:49:37.020Z,15.12
2023-05-20T18:52:42.266Z,15.08
2023-05-20T18:55:47.760Z,15.04
2023-05-20T18:58:51.726Z,15.03
2023-05-20T19:01:55.285Z,14.97
2023-05-20T19:04:58.877Z,14.92
2023-05-20T19:08:05.894Z,14.88
2023-05-20T19:11:09.994Z,14.85
2023-05-20T19:14:13.623Z,14.82
2023-05-20T19:17:20.250Z,14.84
2023-05-20T19:20:24.720Z,14.76
2023-05-20T19:23:29.736Z,14.74
2023-05-20T19:26:33.936Z,14.75
2023-05-20T19:29:37.513Z,14.72
2023-05-20T19:32:41.143Z,14.71
2023-05-20T19:35:44.855Z,14.65
2023-05-20T19:38:49.966Z,14.66
2023-05-20T19:41:54.177Z,14.65
2023-05-20T19:44:57.974Z,14.56
2023-05-20T19:48:01.882Z,14.55
2023-05-20T19:51:05.758Z,14.56
2023-05-20T19:54:37.681Z,14.52
2023-05-20T19:57:42.136Z,14.53
2023-05-20T20:00:45.867Z,14.49
2023-05-20T20:03:49.373Z,14.47
2023-05-20T20:06:52.853Z,14.47
2023-05-20T20:09:58.068Z,14.46
2023-05-20T20:13:01.786Z,14.43
2023-05-20T20:16:06.239Z,14.42
2023-05-20T20:19:11.929Z,14.40
2023-05-20T20:22:16.827Z,14.34
2023-05-20T20:25:22.021Z,14.36
2023-05-20T20:28:25.850Z,14.34
2023-05-20T20:31:29.625Z,14.30
2023-05-20T20:34:33.157Z,14.30
2023-05-20T20:37:38.431Z,14.28
2023-05-20T20:40:44.935Z,14.27
2023-05-20T20:43:48.713Z,14.27
2023-05-20T20:46:52.824Z,14.28
2023-05-20T20:49:56.996Z,14.27
2023-05-20T20:53:00.607Z,14.27
2023-05-20T20:56:06.280Z,14.22
2023-05-20T20:59:10.313Z,14.22
2023-05-20T21:02:14.068Z,14.22
2023-05-20T21:05:18.072Z,14.19
2023-05-20T21:08:27.704Z,14.21
2023-05-20T21:11:33.153Z,14.22
2023-05-20T21:14:37.178Z,14.20
2023-05-20T21:17:40.908Z,14.19
2023-05-20T21:20:44.769Z,14.20
2023-05-20T21:23:49.110Z,14.20
2023-05-20T21:26:54.045Z,14.17
2023-05-20T21:29:57.782Z,14.11
2023-05-20T21:33:01.737Z,14.10
2023-05-20T21:36:06.359Z,14.07
2023-05-20T21:39:09.915Z,14.07
2023-05-20T21:42:14.854Z,14.02
2023-05-20T21:45:18.932Z,14.01
2023-05-20T21:48:23.198Z,13.99
2023-05-20T21:51:26.728Z,13.96
2023-05-20T21:54:30.209Z,13.94
2023-05-20T21:57:35.059Z,13.96
2023-05-20T22:00:38.893Z,13.95
2023-05-20T22:03:47.868Z,13.91
2023-05-20T22:06:54.272Z,13.87
2023-05-20T22:09:57.761Z,13.85
2023-05-20T22:13:03.149Z,13.83
2023-05-20T22:16:07.627Z,13.85
2023-05-20T22:19:11.293Z,13.82
2023-05-20T22:22:14.913Z,13.82
2023-05-20T22:25:18.708Z,13.80
2023-05-20T22:28:23.896Z,13.80
2023-05-20T22:31:27.707Z,13.77
2023-05-20T22:34:31.272Z,13.77
2023-05-20T22:37:35.059Z,13.71
2023-05-20T22:40:39.309Z,13.69
2023-05-20T22:43:44.633Z,13.69
2023-05-20T22:46:48.155Z,13.67
2023-05-20T22:49:51.951Z,13.63
2023-05-20T22:52:55.970Z,13.58
2023-05-20T22:56:00.019Z,13.48
2023-05-20T22:59:05.040Z,13.42
2023-05-20T23:02:08.994Z,13.36
2023-05-20T23:05:13.031Z,13.29
2023-05-20T23:08:16.803Z,13.19
2023-05-20T23:11:20.881Z,13.13
2023-05-20T23:14:26.290Z,13.06
2023-05-20T23:17:30.015Z,13.00
2023-05-20T23:20:33.657Z,13.01
2023-05-20T23:23:37.192Z,12.88
2023-05-20T23:26:40.824Z,12.93
2023-05-20T23:29:46.036Z,12.81
2023-05-20T23:32:50.012Z,12.83
2023-05-20T23:35:53.919Z,12.72
2023-05-20T23:38:57.812Z,12.67
2023-05-20T23:42:01.428Z,12.61
2023-05-20T23:45:07.754Z,12.52
2023-05-20T23:48:13.570Z,12.45
2023-05-20T23:51:17.382Z,12.37
2023-05-20T23:54:20.940Z,12.34
2023-05-20T23:57:24.436Z,12.30
